Time;durP1;ratioP1;P1;durP2;ratioP2;P2;SDS_P1;SDS_P2;PMS_P1;PMS_P2;Temp;Humidity;BMP_temperature;BMP_pressure;BME280_temperature;BME280_humidity;BME280_pressure;Samples;Min_cycle;Max_cycle;Signal;HPM_P1;HPM_P2
2024/01/22 00:02:15;;;;;;;5.43;3.20;;;8.80;99.90;;;;;;5069079;28;20047;-73
2024/01/22 00:04:41;;;;;;;6.05;2.92;;;8.80;99.90;;;;;;5050137;28;20115;-72
2024/01/22 00:07:06;;;;;;;8.13;3.15;;;8.90;99.90;;;;;;5068920;28;20515;-74
2024/01/22 00:09:32;;;;;;;6.32;3.20;;;8.90;99.90;;;;;;5067928;28;20508;-73
2024/01/22 00:11:58;;;;;;;7.30;3.25;;;9.00;99.90;;;;;;5068748;28;20027;-72
2024/01/22 00:14:23;;;;;;;6.57;3.08;;;9.00;99.90;;;;;;5067950;28;20536;-73
2024/01/22 00:16:49;;;;;;;7.35;3.13;;;9.00;99.90;;;;;;5068719;28;20032;-71
2024/01/22 00:19:15;;;;;;;8.10;3.10;;;9.00;99.90;;;;;;5068864;28;20032;-73
2024/01/22 00:21:44;;;;;;;6.32;3.25;;;9.10;99.90;;;;;;5067756;28;20391;-74
2024/01/22 00:24:09;;;;;;;7.72;3.10;;;9.10;99.90;;;;;;5068578;28;20039;-72
2024/01/22 00:26:35;;;;;;;5.88;2.97;;;9.10;99.90;;;;;;5067513;28;20013;-73
2024/01/22 00:29:01;;;;;;;6.03;3.38;;;9.10;99.90;;;;;;5050406;28;20070;-72
2024/01/22 00:31:27;;;;;;;7.88;3.47;;;9.20;99.90;;;;;;5067754;28;20028;-72
2024/01/22 00:33:52;;;;;;;6.43;3.17;;;9.20;99.90;;;;;;5068713;28;20028;-72
2024/01/22 00:36:18;;;;;;;8.10;3.30;;;9.20;99.90;;;;;;5067977;28;20481;-74
2024/01/22 00:38:43;;;;;;;5.88;3.53;;;9.30;99.90;;;;;;5068004;28;20055;-74
2024/01/22 00:41:09;;;;;;;9.82;3.67;;;9.30;99.90;;;;;;5067993;28;20020;-74
2024/01/22 00:43:36;;;;;;;7.78;3.50;;;9.30;99.90;;;;;;5067810;28;20533;-73
2024/01/22 00:46:02;;;;;;;5.55;3.00;;;9.30;99.90;;;;;;5067807;28;20027;-73
2024/01/22 00:48:28;;;;;;;4.97;2.83;;;9.40;99.90;;;;;;5067799;28;20033;-72
2024/01/22 00:50:54;;;;;;;7.20;3.30;;;9.40;99.90;;;;;;5067014;28;20516;-73
2024/01/22 00:53:19;;;;;;;7.78;3.03;;;9.40;99.90;;;;;;5066874;28;20473;-73
2024/01/22 00:55:45;;;;;;;4.68;3.08;;;9.40;99.90;;;;;;5066957;28;20033;-73
2024/01/22 00:58:10;;;;;;;6.00;2.75;;;9.40;99.90;;;;;;5068040;28;20089;-72
2024/01/22 01:00:36;;;;;;;8.18;2.70;;;9.40;99.90;;;;;;5066833;28;20523;-73
2024/01/22 01:03:03;;;;;;;7.57;3.08;;;9.40;99.90;;;;;;5067822;28;20025;-73
2024/01/22 01:05:29;;;;;;;5.88;2.97;;;9.40;99.90;;;;;;5066856;28;20020;-73
2024/01/22 01:07:55;;;;;;;5.93;3.60;;;9.50;99.90;;;;;;5049638;28;20017;-73
2024/01/22 01:10:20;;;;;;;7.40;3.10;;;9.60;99.90;;;;;;5067572;28;20545;-73
2024/01/22 01:12:46;;;;;;;8.68;3.42;;;9.60;99.90;;;;;;5067524;28;20111;-74
2024/01/22 01:15:12;;;;;;;5.00;2.85;;;9.60;99.90;;;;;;5067244;28;20485;-73
2024/01/22 01:17:37;;;;;;;8.25;3.20;;;9.70;99.90;;;;;;5067690;28;20114;-73
2024/01/22 01:20:04;;;;;;;6.68;2.90;;;9.70;99.90;;;;;;5049068;28;20502;-73
2024/01/22 01:22:33;;;;;;;8.52;2.88;;;9.70;99.90;;;;;;5067456;28;20024;-73
2024/01/22 01:24:59;;;;;;;8.35;3.22;;;9.70;99.90;;;;;;5049028;28;20048;-74
2024/01/22 01:27:25;;;;;;;6.93;2.83;;;9.70;99.90;;;;;;5067236;28;20067;-72
2024/01/22 01:29:52;;;;;;;6.20;2.78;;;9.80;99.90;;;;;;5066795;28;20027;-73
2024/01/22 01:32:18;;;;;;;5.65;2.80;;;9.80;99.90;;;;;;5067281;28;20082;-73
2024/01/22 01:34:44;;;;;;;5.60;2.83;;;9.90;99.90;;;;;;5066534;28;20029;-73
2024/01/22 01:37:09;;;;;;;5.47;2.83;;;9.90;99.90;;;;;;5066944;28;20533;-73
2024/01/22 01:39:35;;;;;;;5.00;2.35;;;9.90;99.90;;;;;;5066631;28;20032;-73
2024/01/22 01:42:01;;;;;;;9.18;2.85;;;9.90;99.90;;;;;;5066591;28;20483;-73
2024/01/22 01:44:38;;;;;;;6.78;2.80;;;10.00;99.90;;;;;;5066541;28;20036;-74
2024/01/22 01:47:06;;;;;;;5.97;2.80;;;10.00;99.90;;;;;;5066245;28;20016;-73
2024/01/22 01:49:32;;;;;;;7.75;2.83;;;10.00;99.90;;;;;;5052796;28;20050;-72
2024/01/22 01:51:58;;;;;;;5.18;2.60;;;10.00;99.90;;;;;;5066311;28;20017;-74
2024/01/22 01:54:28;;;;;;;5.25;2.55;;;10.00;99.90;;;;;;5066529;28;20083;-74
2024/01/22 01:56:54;;;;;;;7.72;2.33;;;10.00;99.90;;;;;;5047934;28;20510;-74
2024/01/22 01:59:20;;;;;;;6.70;2.70;;;10.00;99.90;;;;;;5066666;28;20095;-73
2024/01/22 02:01:46;;;;;;;8.88;2.60;;;10.00;99.90;;;;;;5047721;28;20402;-73
2024/01/22 02:04:11;;;;;;;9.25;3.08;;;10.00;99.90;;;;;;5066340;28;20526;-74
2024/01/22 02:06:37;;;;;;;6.50;2.55;;;10.00;99.90;;;;;;5047829;28;20113;-72
2024/01/22 02:09:02;;;;;;;5.50;2.60;;;10.00;99.90;;;;;;5066424;28;20538;-74
2024/01/22 02:11:29;;;;;;;6.00;2.22;;;10.00;99.90;;;;;;5065355;28;20396;-73
2024/01/22 02:13:54;;;;;;;4.90;2.53;;;10.00;99.90;;;;;;5066473;28;20039;-72
2024/01/22 02:16:21;;;;;;;5.28;2.20;;;10.00;99.90;;;;;;5065677;28;20513;-73
2024/01/22 02:18:47;;;;;;;4.72;2.67;;;10.10;99.90;;;;;;5066203;28;20051;-73
2024/01/22 02:21:14;;;;;;;4.20;2.10;;;10.10;99.90;;;;;;5065689;28;20070;-73
2024/01/22 02:23:40;;;;;;;7.20;2.42;;;10.20;99.90;;;;;;5066174;28;20092;-72
2024/01/22 02:26:05;;;;;;;5.90;2.65;;;10.20;99.90;;;;;;5047312;28;20066;-73
2024/01/22 02:28:32;;;;;;;5.32;2.35;;;10.20;99.90;;;;;;5066151;28;20043;-72
2024/01/22 02:30:58;;;;;;;4.05;2.20;;;10.20;99.90;;;;;;5065816;28;20012;-73
2024/01/22 02:33:24;;;;;;;8.88;2.97;;;10.20;99.90;;;;;;5047730;28;20077;-73
2024/01/22 02:35:50;;;;;;;5.93;2.25;;;10.30;99.90;;;;;;5065536;28;20428;-74
2024/01/22 02:38:15;;;;;;;6.85;2.03;;;10.30;99.90;;;;;;5066208;28;20044;-73
2024/01/22 02:40:41;;;;;;;5.05;2.20;;;10.40;99.90;;;;;;5064971;28;20020;-73
2024/01/22 02:43:07;;;;;;;5.55;2.58;;;10.40;99.90;;;;;;5066153;28;20028;-73
2024/01/22 02:45:32;;;;;;;2.95;1.80;;;10.50;99.90;;;;;;5046597;28;20381;-74
2024/01/22 02:47:58;;;;;;;3.58;1.90;;;10.50;99.90;;;;;;5065568;28;20485;-73
2024/01/22 02:50:23;;;;;;;6.97;2.40;;;10.50;99.90;;;;;;5065107;28;20020;-73
2024/01/22 02:52:50;;;;;;;3.72;1.95;;;10.50;99.90;;;;;;5066017;28;20466;-73
2024/01/22 02:55:16;;;;;;;8.15;2.50;;;10.40;99.90;;;;;;5047219;28;20592;-73
2024/01/22 02:57:41;;;;;;;6.55;2.33;;;10.40;99.90;;;;;;5065320;28;20570;-73
2024/01/22 03:00:07;;;;;;;8.52;2.47;;;10.30;99.90;;;;;;5065133;28;20028;-74
2024/01/22 03:02:34;;;;;;;5.00;2.00;;;10.30;99.90;;;;;;5065126;28;20090;-74
2024/01/22 03:04:59;;;;;;;4.35;1.95;;;10.30;99.90;;;;;;5047311;28;20558;-72
2024/01/22 03:07:25;;;;;;;5.10;2.22;;;10.20;99.90;;;;;;5065380;28;20028;-74
2024/01/22 03:09:51;;;;;;;6.28;2.00;;;10.20;99.90;;;;;;5065594;28;20433;-74
2024/01/22 03:12:16;;;;;;;4.15;2.40;;;10.20;99.90;;;;;;5065067;28;20024;-73
2024/01/22 03:14:42;;;;;;;3.83;2.30;;;10.20;99.90;;;;;;5064278;28;20073;-72
2024/01/22 03:17:09;;;;;;;8.85;2.30;;;10.20;99.90;;;;;;5046674;28;20485;-72
2024/01/22 03:19:36;;;;;;;5.55;2.38;;;10.10;99.90;;;;;;5065138;28;20400;-73
2024/01/22 03:22:02;;;;;;;5.53;2.20;;;10.10;99.90;;;;;;5064588;28;20031;-73
2024/01/22 03:24:27;;;;;;;5.68;2.53;;;10.10;99.90;;;;;;5046953;28;20025;-72
2024/01/22 03:26:53;;;;;;;4.97;2.03;;;10.10;99.90;;;;;;5064650;28;20024;-72
2024/01/22 03:29:19;;;;;;;3.72;1.85;;;10.20;99.90;;;;;;5065594;28;20069;-72
2024/01/22 03:31:44;;;;;;;4.93;1.70;;;10.20;99.90;;;;;;5064956;28;20017;-72
2024/01/22 03:34:10;;;;;;;3.95;2.28;;;10.20;99.90;;;;;;5047349;28;20496;-72
2024/01/22 03:36:36;;;;;;;5.00;2.15;;;10.20;99.90;;;;;;5064696;28;20470;-73
2024/01/22 03:39:02;;;;;;;3.03;2.10;;;10.20;99.90;;;;;;5064958;28;20053;-72
2024/01/22 03:41:28;;;;;;;5.28;2.15;;;10.20;99.90;;;;;;5064277;28;20025;-72
2024/01/22 03:43:53;;;;;;;2.90;1.92;;;10.20;99.90;;;;;;5065316;28;20142;-71
2024/01/22 03:46:19;;;;;;;3.72;2.17;;;10.20;99.90;;;;;;5064798;28;20517;-72
2024/01/22 03:48:45;;;;;;;4.22;2.20;;;10.30;99.90;;;;;;5064880;28;20505;-72
2024/01/22 03:51:11;;;;;;;5.63;2.10;;;10.30;99.90;;;;;;5064339;28;20499;-72
2024/01/22 03:53:37;;;;;;;4.10;2.08;;;10.30;99.90;;;;;;5046763;28;20017;-72
2024/01/22 03:56:05;;;;;;;3.45;2.13;;;10.30;99.90;;;;;;5064458;28;20481;-72
2024/01/22 03:58:30;;;;;;;5.68;1.95;;;10.30;99.90;;;;;;5065222;28;20021;-72
2024/01/22 04:00:56;;;;;;;3.20;2.13;;;10.30;99.90;;;;;;5064268;28;20507;-72
2024/01/22 04:03:23;;;;;;;5.38;2.20;;;10.20;99.90;;;;;;5064861;28;20033;-71
2024/01/22 04:05:48;;;;;;;6.95;2.80;;;10.20;99.90;;;;;;5064282;28;20615;-71
2024/01/22 04:08:14;;;;;;;4.18;2.08;;;10.10;99.90;;;;;;5051458;28;20024;-72
2024/01/22 04:10:39;;;;;;;3.58;2.20;;;10.10;99.90;;;;;;5063871;28;20509;-74
2024/01/22 04:13:05;;;;;;;7.10;2.30;;;10.10;99.90;;;;;;5047000;28;20020;-72
2024/01/22 04:15:31;;;;;;;5.72;2.70;;;10.10;99.90;;;;;;5064256;28;20028;-72
2024/01/22 04:17:57;;;;;;;5.43;2.25;;;10.10;99.90;;;;;;5046650;28;20032;-72
2024/01/22 04:20:23;;;;;;;3.08;1.73;;;10.00;99.90;;;;;;5046655;28;20504;-73
2024/01/22 04:22:51;;;;;;;3.00;1.65;;;10.10;99.90;;;;;;5064645;28;20028;-72
2024/01/22 04:25:17;;;;;;;4.15;2.00;;;10.10;99.90;;;;;;5050799;28;20047;-73
2024/01/22 04:27:42;;;;;;;4.22;2.00;;;10.10;99.90;;;;;;5067499;28;20461;-72
2024/01/22 04:30:08;;;;;;;5.18;2.17;;;10.10;99.90;;;;;;5068199;28;20115;-73
2024/01/22 04:32:34;;;;;;;3.97;1.92;;;10.10;99.90;;;;;;5067605;28;20021;-72
2024/01/22 04:35:00;;;;;;;3.03;2.00;;;10.10;99.90;;;;;;5050280;28;20028;-72
2024/01/22 04:37:26;;;;;;;3.13;1.60;;;10.10;99.90;;;;;;5067689;28;20466;-73
2024/01/22 04:39:52;;;;;;;2.13;1.75;;;10.20;99.90;;;;;;5067578;28;20052;-72
2024/01/22 04:42:20;;;;;;;3.83;1.90;;;10.30;99.90;;;;;;5068040;28;20023;-72
2024/01/22 04:44:46;;;;;;;6.57;1.65;;;10.30;99.90;;;;;;5067876;28;20115;-72
2024/01/22 04:47:12;;;;;;;5.05;1.73;;;10.30;99.90;;;;;;5067716;28;20028;-73
2024/01/22 04:49:38;;;;;;;5.38;1.85;;;10.40;99.90;;;;;;5068242;28;20043;-73
2024/01/22 04:52:04;;;;;;;4.63;1.88;;;10.40;99.90;;;;;;5067536;28;20497;-73
2024/01/22 04:54:30;;;;;;;3.22;1.60;;;10.40;99.90;;;;;;5067707;28;20113;-73
2024/01/22 04:56:55;;;;;;;3.60;1.35;;;10.50;99.90;;;;;;5067394;28;20052;-72
2024/01/22 04:59:21;;;;;;;4.45;1.48;;;10.50;99.90;;;;;;5049929;28;20106;-73
2024/01/22 05:01:47;;;;;;;3.50;1.67;;;10.50;99.90;;;;;;5067014;28;20028;-72
2024/01/22 05:04:13;;;;;;;4.25;2.13;;;10.50;99.90;;;;;;5067649;28;20033;-74
2024/01/22 05:06:38;;;;;;;5.07;1.73;;;10.50;99.90;;;;;;5067279;28;20108;-72
2024/01/22 05:09:04;;;;;;;3.80;1.50;;;10.60;99.90;;;;;;5067895;28;20048;-73
2024/01/22 05:11:31;;;;;;;3.55;1.83;;;10.50;99.90;;;;;;5066667;28;20021;-71
2024/01/22 05:13:57;;;;;;;2.72;1.40;;;10.60;99.90;;;;;;5067742;28;20036;-72
2024/01/22 05:16:23;;;;;;;4.25;1.77;;;10.60;99.90;;;;;;5067197;28;20013;-72
2024/01/22 05:18:50;;;;;;;4.60;1.77;;;10.60;99.90;;;;;;5067713;28;20479;-72
2024/01/22 05:21:16;;;;;;;6.07;1.60;;;10.60;99.90;;;;;;5067166;28;20466;-73
2024/01/22 05:23:42;;;;;;;4.68;1.40;;;10.70;99.90;;;;;;5067376;28;20084;-71
2024/01/22 05:26:08;;;;;;;3.80;1.55;;;10.70;99.90;;;;;;5066828;28;20103;-72
2024/01/22 05:28:35;;;;;;;3.80;1.70;;;10.70;99.90;;;;;;5067348;28;20130;-73
2024/01/22 05:31:01;;;;;;;4.53;1.50;;;10.80;99.90;;;;;;5066682;28;20052;-72
2024/01/22 05:33:29;;;;;;;3.33;1.38;;;10.80;99.90;;;;;;5067011;28;20013;-72
2024/01/22 05:35:55;;;;;;;6.03;1.58;;;10.80;99.90;;;;;;5066552;28;20110;-72
2024/01/22 05:38:21;;;;;;;3.50;1.50;;;10.90;99.90;;;;;;5066375;28;20066;-72
2024/01/22 05:40:47;;;;;;;3.08;1.42;;;10.90;99.90;;;;;;5066694;28;20504;-72
2024/01/22 05:43:13;;;;;;;4.10;1.30;;;11.00;99.90;;;;;;5065414;28;20052;-72
2024/01/22 05:45:39;;;;;;;2.42;1.27;;;11.00;99.90;;;;;;5066612;28;20032;-72
2024/01/22 05:48:06;;;;;;;3.50;1.30;;;11.10;99.90;;;;;;5066617;28;20017;-73
2024/01/22 05:50:32;;;;;;;3.83;1.30;;;11.10;99.90;;;;;;5048309;28;20029;-72
2024/01/22 05:52:58;;;;;;;4.97;1.38;;;11.10;99.90;;;;;;5066533;28;20023;-72
2024/01/22 05:55:23;;;;;;;4.88;1.70;;;11.10;99.90;;;;;;5066902;28;20473;-73
2024/01/22 05:57:49;;;;;;;4.10;1.67;;;11.20;99.90;;;;;;5066102;28;20093;-71
2024/01/22 06:00:15;;;;;;;2.15;1.15;;;11.10;99.90;;;;;;5066634;28;20028;-72
2024/01/22 06:02:42;;;;;;;3.38;1.20;;;11.20;99.90;;;;;;5066394;28;20036;-73
2024/01/22 06:05:09;;;;;;;3.42;1.30;;;11.20;99.90;;;;;;5066515;28;20064;-72
2024/01/22 06:07:36;;;;;;;2.22;1.30;;;11.30;99.90;;;;;;5065669;28;20398;-72
2024/01/22 06:10:02;;;;;;;2.60;1.10;;;11.30;99.90;;;;;;5066404;28;20097;-72
2024/01/22 06:12:28;;;;;;;4.57;1.15;;;11.40;99.90;;;;;;5065703;28;20496;-72
2024/01/22 06:14:54;;;;;;;4.35;1.27;;;11.40;99.90;;;;;;5066455;28;20024;-72
2024/01/22 06:17:20;;;;;;;4.78;1.10;;;11.50;99.90;;;;;;5065821;28;20021;-72
2024/01/22 06:19:45;;;;;;;3.17;1.10;;;11.60;99.90;;;;;;5066057;28;20381;-72
2024/01/22 06:22:12;;;;;;;5.93;1.00;;;11.70;99.90;;;;;;5065631;28;20206;-72
2024/01/22 06:24:39;;;;;;;1.90;0.90;;;11.70;99.90;;;;;;5065798;28;20028;-72
2024/01/22 06:27:05;;;;;;;3.97;0.85;;;11.80;99.90;;;;;;5065688;28;20483;-72
2024/01/22 06:29:31;;;;;;;1.48;0.80;;;11.90;99.90;;;;;;5064511;28;20023;-72
2024/01/22 06:31:56;;;;;;;1.13;0.73;;;11.90;99.90;;;;;;5064468;28;20016;-72
2024/01/22 06:34:22;;;;;;;2.95;1.00;;;11.90;99.90;;;;;;5066211;28;20177;-73
2024/01/22 06:36:48;;;;;;;2.10;0.80;;;11.90;99.90;;;;;;5065201;28;20017;-71
2024/01/22 06:39:13;;;;;;;1.90;0.80;;;12.00;99.90;;;;;;5065750;28;20456;-73
2024/01/22 06:41:41;;;;;;;2.78;1.10;;;12.00;99.90;;;;;;5065230;28;20446;-74
2024/01/22 06:44:06;;;;;;;3.75;1.17;;;12.00;99.90;;;;;;5047915;28;20016;-72
2024/01/22 06:46:32;;;;;;;3.38;0.90;;;12.10;99.90;;;;;;5065380;28;20493;-72
2024/01/22 06:48:58;;;;;;;6.65;1.13;;;12.10;99.90;;;;;;5065618;28;20025;-73
2024/01/22 06:51:23;;;;;;;4.60;1.10;;;12.10;99.90;;;;;;5064578;28;20343;-73
2024/01/22 06:53:50;;;;;;;2.17;0.93;;;12.10;99.90;;;;;;5047572;28;20482;-73
2024/01/22 06:56:15;;;;;;;2.90;0.93;;;12.00;99.90;;;;;;5060238;28;20212;-72
2024/01/22 06:58:41;;;;;;;1.52;0.73;;;12.00;99.90;;;;;;5065353;28;20402;-72
2024/01/22 07:01:07;;;;;;;3.63;1.00;;;12.00;99.90;;;;;;5060525;28;20253;-72
2024/01/22 07:03:33;;;;;;;3.13;1.00;;;12.00;99.90;;;;;;5060441;28;20029;-73
2024/01/22 07:05:58;;;;;;;8.57;1.10;;;12.00;99.90;;;;;;5054841;28;20596;-73
2024/01/22 07:08:24;;;;;;;3.42;1.00;;;12.00;99.90;;;;;;5056970;28;20069;-72
2024/01/22 07:10:50;;;;;;;5.72;1.20;;;12.00;99.90;;;;;;5045298;28;20517;-76
2024/01/22 07:13:16;;;;;;;3.75;1.17;;;12.00;99.90;;;;;;5058755;28;20036;-72
2024/01/22 07:15:41;;;;;;;4.70;1.17;;;12.00;99.90;;;;;;5052209;28;20017;-73
2024/01/22 07:18:08;;;;;;;4.60;0.98;;;12.00;99.90;;;;;;5062112;28;20534;-72
2024/01/22 07:20:33;;;;;;;5.25;1.30;;;12.00;99.90;;;;;;5047200;28;20427;-74
2024/01/22 07:22:59;;;;;;;4.18;1.00;;;12.00;99.90;;;;;;5035410;28;20071;-72
2024/01/22 07:25:25;;;;;;;5.47;1.30;;;12.00;99.90;;;;;;5052760;28;20438;-72
2024/01/22 07:27:51;;;;;;;3.45;1.20;;;12.10;99.90;;;;;;5064563;28;20501;-73
2024/01/22 07:30:17;;;;;;;8.52;1.92;;;12.10;99.90;;;;;;5065348;28;20039;-73
2024/01/22 07:32:43;;;;;;;6.10;1.38;;;12.10;99.90;;;;;;5050391;28;20018;-74
2024/01/22 07:35:11;;;;;;;5.50;1.65;;;12.10;99.90;;;;;;5053221;28;20052;-71
2024/01/22 07:37:38;;;;;;;6.90;1.45;;;12.10;99.90;;;;;;5044671;28;20021;-71
2024/01/22 07:40:05;;;;;;;7.32;1.83;;;12.20;99.90;;;;;;5038495;28;20113;-71
2024/01/22 07:42:34;;;;;;;8.32;1.80;;;12.20;99.90;;;;;;5044828;28;20036;-74
2024/01/22 07:45:01;;;;;;;7.15;1.52;;;12.20;99.90;;;;;;5033359;28;20029;-72
2024/01/22 07:47:27;;;;;;;9.30;1.58;;;12.20;99.90;;;;;;5052339;28;20036;-72
2024/01/22 07:49:53;;;;;;;7.93;1.98;;;12.30;99.90;;;;;;5058399;28;20029;-73
2024/01/22 07:52:20;;;;;;;6.13;1.20;;;12.30;99.90;;;;;;5059841;28;20093;-72
2024/01/22 07:54:47;;;;;;;6.68;1.60;;;12.20;99.90;;;;;;5053932;28;20081;-72
2024/01/22 07:57:12;;;;;;;11.55;1.80;;;12.30;99.90;;;;;;5056888;28;20406;-72
2024/01/22 07:59:38;;;;;;;7.03;1.63;;;12.30;99.90;;;;;;5064824;28;20032;-74
2024/01/22 08:02:05;;;;;;;9.38;2.55;;;12.30;99.90;;;;;;5054155;28;20435;-73
2024/01/22 08:04:31;;;;;;;8.07;1.92;;;12.30;99.90;;;;;;5058320;28;20025;-75
2024/01/22 08:07:00;;;;;;;6.90;1.50;;;12.30;99.90;;;;;;5049811;28;20009;-74
2024/01/22 08:09:29;;;;;;;9.35;1.80;;;12.20;99.90;;;;;;5068853;28;20206;-74
2024/01/22 08:11:55;;;;;;;10.70;2.13;;;12.20;99.90;;;;;;5068187;28;20028;-72
2024/01/22 08:14:21;;;;;;;10.05;2.05;;;12.20;99.90;;;;;;5066219;28;20024;-72
2024/01/22 08:16:53;;;;;;;10.18;2.17;;;12.20;99.90;;;;;;5058617;28;20545;-73
2024/01/22 08:19:19;;;;;;;11.48;2.30;;;12.20;99.90;;;;;;5062316;28;20047;-72
2024/01/22 08:21:45;;;;;;;10.25;2.70;;;12.10;99.90;;;;;;5060057;28;20476;-72
2024/01/22 08:24:10;;;;;;;11.35;2.22;;;12.00;99.90;;;;;;5043507;28;20563;-72
2024/01/22 08:26:36;;;;;;;12.43;2.33;;;12.00;99.90;;;;;;5060695;28;20430;-72
2024/01/22 08:29:01;;;;;;;8.25;2.78;;;11.90;99.90;;;;;;5043732;28;20516;-72
2024/01/22 08:31:27;;;;;;;9.73;2.00;;;12.00;99.90;;;;;;5062715;28;20170;-72
2024/01/22 08:33:54;;;;;;;7.82;2.20;;;11.90;99.90;;;;;;5050413;28;20123;-72
2024/01/22 08:36:20;;;;;;;9.93;2.20;;;11.90;99.90;;;;;;5068284;28;20455;-72
2024/01/22 08:38:46;;;;;;;11.63;2.83;;;11.90;99.90;;;;;;5067278;28;20080;-72
2024/01/22 08:41:11;;;;;;;8.45;2.35;;;11.90;99.90;;;;;;5067891;28;20520;-72
2024/01/22 08:43:37;;;;;;;13.02;2.92;;;11.90;99.90;;;;;;5067949;28;20027;-72
2024/01/22 08:46:03;;;;;;;7.80;2.53;;;11.90;99.90;;;;;;5063887;28;20103;-71
2024/01/22 08:48:30;;;;;;;6.68;2.05;;;11.90;99.90;;;;;;5062779;28;20108;-72
2024/01/22 08:50:56;;;;;;;11.57;2.40;;;11.90;99.90;;;;;;5064587;28;20436;-72
2024/01/22 08:53:22;;;;;;;8.70;1.92;;;11.90;99.90;;;;;;5062776;28;20032;-72
2024/01/22 08:55:48;;;;;;;9.35;2.75;;;11.90;99.90;;;;;;5067621;28;20035;-72
2024/01/22 08:58:15;;;;;;;15.70;3.58;;;11.90;99.90;;;;;;5049008;28;20101;-72
2024/01/22 09:00:41;;;;;;;10.75;2.20;;;12.00;99.90;;;;;;5067624;28;20024;-72
2024/01/22 09:03:07;;;;;;;11.00;3.10;;;11.90;99.90;;;;;;5046770;28;20089;-72
2024/01/22 09:05:34;;;;;;;11.75;2.65;;;12.00;99.90;;;;;;5064161;28;20119;-72
2024/01/22 09:07:59;;;;;;;11.25;2.40;;;12.00;99.90;;;;;;5065023;28;20013;-72
2024/01/22 09:10:26;;;;;;;13.35;3.30;;;12.00;99.90;;;;;;5060664;28;20039;-72
2024/01/22 09:12:52;;;;;;;9.35;2.20;;;12.00;99.90;;;;;;5043659;28;20013;-72
2024/01/22 09:15:18;;;;;;;12.77;2.50;;;12.00;99.90;;;;;;5057635;28;20104;-71
2024/01/22 09:17:44;;;;;;;11.73;2.50;;;12.00;99.90;;;;;;5060780;28;20504;-71
2024/01/22 09:20:10;;;;;;;9.88;2.72;;;12.10;99.90;;;;;;5067263;28;20033;-71
2024/01/22 09:22:39;;;;;;;9.23;2.40;;;12.10;99.90;;;;;;5062607;28;20163;-71
2024/01/22 09:25:05;;;;;;;11.88;2.83;;;12.00;99.90;;;;;;5063650;28;20494;-72
2024/01/22 09:27:31;;;;;;;12.60;3.10;;;12.10;99.90;;;;;;5063766;28;20035;-70
2024/01/22 09:29:57;;;;;;;11.18;2.33;;;12.10;99.90;;;;;;5059978;28;20517;-72
2024/01/22 09:32:22;;;;;;;11.20;3.10;;;12.00;99.90;;;;;;5066616;28;20070;-72
2024/01/22 09:34:48;;;;;;;12.80;2.50;;;11.90;99.90;;;;;;5055773;28;20040;-71
2024/01/22 09:37:14;;;;;;;13.98;2.70;;;11.90;99.90;;;;;;5065435;28;20032;-72
2024/01/22 09:39:40;;;;;;;11.52;2.92;;;11.80;99.90;;;;;;5059177;28;20417;-72
2024/01/22 09:42:08;;;;;;;10.82;2.40;;;11.70;99.90;;;;;;5066054;28;20036;-71
2024/01/22 09:44:35;;;;;;;13.30;2.50;;;11.70;99.90;;;;;;5066315;28;20027;-72
2024/01/22 09:47:02;;;;;;;9.40;1.83;;;11.70;99.90;;;;;;5054975;28;20021;-72
2024/01/22 09:49:28;;;;;;;13.38;2.15;;;11.60;99.90;;;;;;5048165;28;20024;-73
2024/01/22 09:51:54;;;;;;;16.17;2.63;;;11.30;99.90;;;;;;5063564;28;20017;-72
2024/01/22 09:54:22;;;;;;;9.18;2.00;;;11.00;99.90;;;;;;5054976;28;20154;-71
2024/01/22 09:56:52;;;;;;;11.13;2.20;;;10.80;99.90;;;;;;5062798;28;20486;-72
2024/01/22 09:59:28;;;;;;;14.40;2.35;;;10.60;99.90;;;;;;5058611;28;20049;-73
2024/01/22 10:01:54;;;;;;;14.75;2.13;;;10.50;99.90;;;;;;5065739;28;20016;-72
2024/01/22 10:04:23;;;;;;;12.38;2.88;;;10.40;99.90;;;;;;5060223;28;20025;-72
2024/01/22 10:06:49;;;;;;;17.92;2.47;;;10.30;99.90;;;;;;5060258;28;20036;-72
2024/01/22 10:09:17;;;;;;;15.20;2.20;;;10.20;99.90;;;;;;5059017;28;20032;-72
2024/01/22 10:11:43;;;;;;;21.98;2.97;;;10.20;99.90;;;;;;5057412;28;20024;-72
2024/01/22 10:14:09;;;;;;;17.13;2.38;;;10.10;99.90;;;;;;5059562;28;20098;-72
2024/01/22 10:16:38;;;;;;;12.73;2.42;;;10.10;99.90;;;;;;5051037;28;20087;-72
2024/01/22 10:19:07;;;;;;;11.85;2.20;;;10.00;99.90;;;;;;5030948;28;20029;-72
2024/01/22 10:21:34;;;;;;;13.20;2.33;;;9.90;99.90;;;;;;5060456;28;20017;-72
2024/01/22 10:24:08;;;;;;;19.13;2.95;;;9.90;99.90;;;;;;5050214;28;20017;-72
2024/01/22 10:26:35;;;;;;;11.10;2.03;;;9.80;99.90;;;;;;5057525;28;20036;-72
2024/01/22 10:29:15;;;;;;;14.48;2.45;;;9.80;99.90;;;;;;5062191;28;20103;-72
2024/01/22 10:31:56;;;;;;;14.80;2.63;;;9.80;99.90;;;;;;5050726;28;20029;-72
2024/01/22 10:34:29;;;;;;;21.95;3.03;;;9.80;99.90;;;;;;5055075;28;20116;-72
2024/01/22 10:37:09;;;;;;;15.07;2.50;;;9.80;99.90;;;;;;5061851;28;20071;-72
2024/01/22 10:39:36;;;;;;;17.13;4.05;;;9.80;99.90;;;;;;5064751;28;20048;-72
2024/01/22 10:42:06;;;;;;;15.82;2.72;;;9.80;99.90;;;;;;5061254;28;20039;-72
2024/01/22 10:44:32;;;;;;;15.57;2.75;;;9.70;99.90;;;;;;5044625;28;20033;-72
2024/01/22 10:47:01;;;;;;;20.63;3.65;;;9.80;99.90;;;;;;5055782;28;20024;-72
2024/01/22 10:49:28;;;;;;;21.20;3.35;;;9.70;99.90;;;;;;5065006;28;20588;-72
2024/01/22 10:51:55;;;;;;;19.73;3.15;;;9.70;99.90;;;;;;5064819;28;20020;-71
2024/01/22 10:54:22;;;;;;;19.98;3.22;;;9.70;99.90;;;;;;5065208;28;20886;-72
2024/01/22 10:56:52;;;;;;;16.58;3.92;;;9.70;99.90;;;;;;5065017;28;20504;-71
2024/01/22 10:59:21;;;;;;;20.33;3.10;;;9.70;99.90;;;;;;5065695;28;20082;-72
2024/01/22 11:01:52;;;;;;;22.02;3.75;;;9.70;99.90;;;;;;5064917;28;20033;-72
2024/01/22 11:04:23;;;;;;;28.65;4.55;;;9.80;99.90;;;;;;5065167;28;20108;-72
2024/01/22 11:06:53;;;;;;;25.23;3.92;;;9.70;99.90;;;;;;5065214;28;20542;-72
2024/01/22 11:09:18;;;;;;;20.20;4.07;;;9.80;99.90;;;;;;5063717;28;20017;-73
2024/01/22 11:11:50;;;;;;;28.35;4.65;;;9.80;99.90;;;;;;5055858;28;20017;-72
2024/01/22 11:14:16;;;;;;;28.55;4.70;;;9.80;99.90;;;;;;5064600;28;20032;-72
2024/01/22 11:16:41;;;;;;;21.05;4.20;;;9.80;99.90;;;;;;5064663;28;20032;-73
2024/01/22 11:19:07;;;;;;;29.38;4.72;;;9.80;99.90;;;;;;5046970;28;20078;-73
2024/01/22 11:21:38;;;;;;;30.98;5.88;;;9.90;99.90;;;;;;5046745;28;20016;-74
2024/01/22 11:24:12;;;;;;;30.13;5.57;;;9.90;99.90;;;;;;5062149;28;20108;-73
2024/01/22 11:27:03;;;;;;;30.02;4.63;;;9.90;99.90;;;;;;5064697;28;20467;-71
2024/01/22 11:29:29;;;;;;;31.90;6.30;;;9.90;99.90;;;;;;5050390;28;20123;-71
2024/01/22 11:31:56;;;;;;;22.58;4.30;;;9.90;99.90;;;;;;5055968;28;20734;-72
2024/01/22 11:34:40;;;;;;;27.15;5.22;;;10.00;99.90;;;;;;5047025;28;20025;-72
2024/01/22 11:37:07;;;;;;;26.33;4.80;;;10.00;99.90;;;;;;5049502;28;20029;-72
2024/01/22 11:39:33;;;;;;;26.52;3.88;;;10.00;99.90;;;;;;5042241;28;20033;-75
2024/01/22 11:42:11;;;;;;;31.95;4.82;;;10.10;99.90;;;;;;5069153;28;20031;-72
2024/01/22 11:44:40;;;;;;;24.42;4.70;;;10.20;99.90;;;;;;5050991;28;20032;-72
2024/01/22 11:47:10;;;;;;;27.83;4.53;;;10.30;99.90;;;;;;5068542;28;20476;-72
2024/01/22 11:49:39;;;;;;;29.02;6.10;;;10.40;99.90;;;;;;5060715;28;20021;-72
2024/01/22 11:52:20;;;;;;;24.63;4.78;;;10.50;99.90;;;;;;5045311;28;20421;-72
2024/01/22 11:55:03;;;;;;;30.05;5.70;;;10.70;99.90;;;;;;5055916;28;20013;-71
2024/01/22 11:57:35;;;;;;;24.35;5.13;;;10.80;99.90;;;;;;5061215;28;20028;-71
2024/01/22 12:00:11;;;;;;;25.02;4.28;;;10.80;99.90;;;;;;5058824;28;20367;-72
2024/01/22 12:02:44;;;;;;;30.30;5.40;;;10.90;99.90;;;;;;5050080;28;20041;-73
2024/01/22 12:05:17;;;;;;;30.35;6.47;;;10.90;99.90;;;;;;5067635;28;20064;-72
2024/01/22 12:07:44;;;;;;;27.77;5.63;;;11.00;99.90;;;;;;5060997;28;20025;-73
2024/01/22 12:10:23;;;;;;;28.52;5.60;;;11.00;99.90;;;;;;5064992;28;20040;-72
2024/01/22 12:12:57;;;;;;;32.10;5.90;;;11.00;99.90;;;;;;5054093;28;20052;-73
2024/01/22 12:15:27;;;;;;;32.88;5.50;;;11.10;99.90;;;;;;5039843;28;20031;-73
2024/01/22 12:17:54;;;;;;;26.20;5.43;;;11.10;99.90;;;;;;5054993;28;20066;-72
2024/01/22 12:20:20;;;;;;;29.50;5.93;;;11.20;99.90;;;;;;5030788;28;20330;-72
2024/01/22 12:23:01;;;;;;;29.50;5.20;;;11.20;99.90;;;;;;5043686;28;20505;-73
2024/01/22 12:25:37;;;;;;;;;;;11.30;99.90;;;;;;5050446;28;20028;-72
2024/01/22 12:28:14;;;;;;;32.78;6.38;;;11.30;99.90;;;;;;5065979;28;19995;-72
2024/01/22 12:30:40;;;;;;;30.83;6.13;;;11.30;99.90;;;;;;5065344;28;20021;-72
2024/01/22 12:33:06;;;;;;;36.90;7.72;;;11.20;99.90;;;;;;5064761;28;20059;-73
2024/01/22 12:35:31;;;;;;;32.35;6.55;;;11.20;99.90;;;;;;5066580;28;20510;-73
2024/01/22 12:37:57;;;;;;;36.92;6.93;;;11.20;99.90;;;;;;5060794;28;20111;-72
2024/01/22 12:40:24;;;;;;;40.13;6.60;;;11.20;99.90;;;;;;5066083;28;20041;-73
2024/01/22 12:42:51;;;;;;;30.27;5.65;;;11.20;99.90;;;;;;5067307;28;20020;-73
2024/01/22 12:45:23;;;;;;;32.42;6.18;;;11.20;99.90;;;;;;5059626;28;20095;-73